Главная страница
METAR-TAF:

METAR-TAF

Аэропорты :

Международный аэропорт имени сэра Сивусагура Рамгулама

Маврикий, Маврикий

широта: 20-26S, долгота: 057-40E, высота над уровнем моря: 55 м

Текущие метеонаблюдения

Эта сводка был подготовлена 37 минут назад, в 21:00 UTC
Ветер 12 Узел от восточный
Температура 25°C
Влажность 79%
Давление 1017 hPa
Видимость 10 км и более
Отдельные облака на высоте 1600 фута
ливни в окрестностях

METAR: FIMP 162100Z 10012KT 9999 VCSH SCT016 25/21 Q1017

Время: 01:37 (21:37 UTC)

Прогноз

Эта сводка был подготовлена 4 часа и 7 минут назад, в 17:30 UTC
Прогноз действительный с 16-го 18 UTC до 18-го 00 UTC
Ветер 12 Узел от восточно-юго-восточный с порывами до 22 Узел
Видимость 10 км и более
Отдельные облака на высоте 1700 фута

TAF: FIMP 161730Z 1618/1800 11012G22KT 9999 SCT017

Метеонаблюдения и прогнозы для более 4000 аэропортов (сводки METAR и TAF).

Имеющиеся станции представлены на карте желтыми и красными точками.

Чтобы увидеть название станции, наведите на нее мышь.

Затем щелкните, чтобы увидеть метеонаблюдения и метеопрогнозы.

Управление картой: чтобы увеличить масштаб, щелкните зеленые кнопки с черным крестиком; чтобы уменьшить масштаб, щелкните зеленую кнопку с тире; для просмотра соседних карт щелкайте зеленые стрелки.


METAR-TAF: